sensor_id;sensor_type;location;lat;lon;timestamp;pressure;altitude;pressure_sealevel;temperature;humidity
29903;BME280;30288;50.514;9.678;2023-02-14T00:00:18;100682.53;;;-2.22;100.00
29903;BME280;30288;50.514;9.678;2023-02-14T00:02:26;100680.53;;;-2.13;100.00
29903;BME280;30288;50.514;9.678;2023-02-14T00:04:31;100694.25;;;-2.18;100.00
29903;BME280;30288;50.514;9.678;2023-02-14T00:06:39;100684.06;;;-2.24;100.00
29903;BME280;30288;50.514;9.678;2023-02-14T00:08:45;100689.69;;;-2.41;100.00
29903;BME280;30288;50.514;9.678;2023-02-14T00:10:50;100691.06;;;-2.46;100.00
29903;BME280;30288;50.514;9.678;2023-02-14T00:12:55;100685.63;;;-2.55;100.00
29903;BME280;30288;50.514;9.678;2023-02-14T00:15:01;100689.38;;;-2.47;100.00
29903;BME280;30288;50.514;9.678;2023-02-14T00:17:19;100691.41;;;-2.40;100.00
29903;BME280;30288;50.514;9.678;2023-02-14T00:19:26;100687.31;;;-2.54;100.00
29903;BME280;30288;50.514;9.678;2023-02-14T00:21:35;100688.84;;;-2.56;100.00
29903;BME280;30288;50.514;9.678;2023-02-14T00:23:41;100680.53;;;-2.58;100.00
29903;BME280;30288;50.514;9.678;2023-02-14T00:25:46;100688.31;;;-2.66;100.00
29903;BME280;30288;50.514;9.678;2023-02-14T00:27:52;100689.53;;;-2.74;100.00
29903;BME280;30288;50.514;9.678;2023-02-14T00:29:57;100689.38;;;-2.77;100.00
29903;BME280;30288;50.514;9.678;2023-02-14T00:32:04;100699.63;;;-2.84;100.00
29903;BME280;30288;50.514;9.678;2023-02-14T00:34:10;100695.66;;;-2.82;100.00
29903;BME280;30288;50.514;9.678;2023-02-14T00:36:19;100691.38;;;-2.84;100.00
29903;BME280;30288;50.514;9.678;2023-02-14T00:38:24;100682.56;;;-2.81;100.00
29903;BME280;30288;50.514;9.678;2023-02-14T00:40:30;100688.59;;;-2.61;100.00
29903;BME280;30288;50.514;9.678;2023-02-14T00:42:35;100686.47;;;-2.55;100.00
29903;BME280;30288;50.514;9.678;2023-02-14T00:44:41;100694.47;;;-2.59;100.00
29903;BME280;30288;50.514;9.678;2023-02-14T00:46:46;100690.53;;;-2.55;100.00
29903;BME280;30288;50.514;9.678;2023-02-14T00:48:52;100680.44;;;-2.45;100.00
29903;BME280;30288;50.514;9.678;2023-02-14T00:50:57;100681.19;;;-2.46;100.00
29903;BME280;30288;50.514;9.678;2023-02-14T00:53:05;100680.69;;;-2.55;100.00
29903;BME280;30288;50.514;9.678;2023-02-14T00:55:10;100688.84;;;-2.56;100.00
29903;BME280;30288;50.514;9.678;2023-02-14T00:57:15;100681.44;;;-2.56;100.00
29903;BME280;30288;50.514;9.678;2023-02-14T00:59:20;100678.22;;;-2.70;100.00
29903;BME280;30288;50.514;9.678;2023-02-14T01:01:27;100680.84;;;-2.82;100.00
29903;BME280;30288;50.514;9.678;2023-02-14T01:03:33;100691.88;;;-2.90;100.00
29903;BME280;30288;50.514;9.678;2023-02-14T01:05:38;100694.94;;;-2.94;100.00
29903;BME280;30288;50.514;9.678;2023-02-14T01:07:43;100697.84;;;-2.86;100.00
29903;BME280;30288;50.514;9.678;2023-02-14T01:09:51;100693.00;;;-2.70;100.00
29903;BME280;30288;50.514;9.678;2023-02-14T01:11:56;100695.66;;;-2.82;100.00
29903;BME280;30288;50.514;9.678;2023-02-14T01:14:02;100690.38;;;-2.88;100.00
29903;BME280;30288;50.514;9.678;2023-02-14T01:16:10;100686.81;;;-2.78;100.00
29903;BME280;30288;50.514;9.678;2023-02-14T01:18:16;100691.63;;;-2.80;100.00
29903;BME280;30288;50.514;9.678;2023-02-14T01:20:23;100682.72;;;-2.78;100.00
29903;BME280;30288;50.514;9.678;2023-02-14T01:22:28;100684.56;;;-2.88;100.00
29903;BME280;30288;50.514;9.678;2023-02-14T01:24:34;100679.91;;;-2.84;100.00
29903;BME280;30288;50.514;9.678;2023-02-14T01:26:41;100679.16;;;-2.83;100.00
29903;BME280;30288;50.514;9.678;2023-02-14T01:28:47;100683.47;;;-2.79;100.00
29903;BME280;30288;50.514;9.678;2023-02-14T01:30:52;100680.16;;;-2.94;100.00
29903;BME280;30288;50.514;9.678;2023-02-14T01:32:58;100673.00;;;-3.04;100.00
29903;BME280;30288;50.514;9.678;2023-02-14T01:35:03;100672.66;;;-3.10;100.00
29903;BME280;30288;50.514;9.678;2023-02-14T01:37:09;100678.50;;;-3.08;100.00
29903;BME280;30288;50.514;9.678;2023-02-14T01:39:15;100668.94;;;-2.89;100.00
29903;BME280;30288;50.514;9.678;2023-02-14T01:41:22;100669.28;;;-2.83;100.00
29903;BME280;30288;50.514;9.678;2023-02-14T01:43:30;100674.56;;;-2.77;100.00
29903;BME280;30288;50.514;9.678;2023-02-14T01:45:35;100674.81;;;-2.87;100.00
29903;BME280;30288;50.514;9.678;2023-02-14T01:47:42;100682.88;;;-2.89;100.00
29903;BME280;30288;50.514;9.678;2023-02-14T01:49:56;100678.78;;;-2.89;100.00
29903;BME280;30288;50.514;9.678;2023-02-14T01:52:09;100680.00;;;-2.82;100.00
29903;BME280;30288;50.514;9.678;2023-02-14T01:54:17;100680.66;;;-2.85;100.00
29903;BME280;30288;50.514;9.678;2023-02-14T01:56:27;100685.06;;;-2.94;100.00
29903;BME280;30288;50.514;9.678;2023-02-14T01:58:38;100680.84;;;-2.82;100.00
29903;BME280;30288;50.514;9.678;2023-02-14T02:00:47;100678.63;;;-2.92;100.00
29903;BME280;30288;50.514;9.678;2023-02-14T02:03:00;100678.63;;;-2.92;100.00
29903;BME280;30288;50.514;9.678;2023-02-14T02:05:08;100676.75;;;-2.96;100.00
29903;BME280;30288;50.514;9.678;2023-02-14T02:07:18;100670.72;;;-3.01;100.00
29903;BME280;30288;50.514;9.678;2023-02-14T02:09:31;100674.69;;;-3.03;100.00
29903;BME280;30288;50.514;9.678;2023-02-14T02:11:37;100671.75;;;-2.97;100.00
29903;BME280;30288;50.514;9.678;2023-02-14T02:13:45;100668.41;;;-2.98;100.00
29903;BME280;30288;50.514;9.678;2023-02-14T02:16:06;100661.22;;;-2.95;100.00
29903;BME280;30288;50.514;9.678;2023-02-14T02:18:22;100658.63;;;-3.11;100.00
29903;BME280;30288;50.514;9.678;2023-02-14T02:23:58;100661.97;;;-2.96;100.00
29903;BME280;30288;50.514;9.678;2023-02-14T02:26:47;100665.69;;;-3.02;100.00
29903;BME280;30288;50.514;9.678;2023-02-14T02:29:21;100675.53;;;-3.17;100.00
29903;BME280;30288;50.514;9.678;2023-02-14T02:32:06;100669.44;;;-3.09;100.00
29903;BME280;30288;50.514;9.678;2023-02-14T02:37:18;100663.03;;;-3.20;100.00
29903;BME280;30288;50.514;9.678;2023-02-14T02:39:44;100669.84;;;-3.16;100.00
29903;BME280;30288;50.514;9.678;2023-02-14T02:42:02;100665.34;;;-3.23;100.00
29903;BME280;30288;50.514;9.678;2023-02-14T02:44:16;100664.13;;;-3.30;100.00
29903;BME280;30288;50.514;9.678;2023-02-14T02:46:24;100660.41;;;-3.23;100.00
29903;BME280;30288;50.514;9.678;2023-02-14T02:48:53;100669.31;;;-3.25;100.00
29903;BME280;30288;50.514;9.678;2023-02-14T02:51:06;100661.56;;;-3.31;100.00
29903;BME280;30288;50.514;9.678;2023-02-14T02:53:37;100653.78;;;-3.24;100.00
29903;BME280;30288;50.514;9.678;2023-02-14T02:55:46;100659.38;;;-3.12;100.00
29903;BME280;30288;50.514;9.678;2023-02-14T02:58:07;100651.09;;;-3.14;100.00
29903;BME280;30288;50.514;9.678;2023-02-14T03:00:14;100652.59;;;-3.16;100.00
29903;BME280;30288;50.514;9.678;2023-02-14T03:02:24;100649.50;;;-3.27;100.00
29903;BME280;30288;50.514;9.678;2023-02-14T03:04:37;100646.41;;;-3.37;100.00
29903;BME280;30288;50.514;9.678;2023-02-14T03:06:59;100655.75;;;-3.19;100.00
29903;BME280;30288;50.514;9.678;2023-02-14T03:09:53;100653.06;;;-3.36;100.00
29903;BME280;30288;50.514;9.678;2023-02-14T03:12:09;100649.47;;;-3.41;100.00
29903;BME280;30288;50.514;9.678;2023-02-14T03:14:22;100651.53;;;-3.34;100.00
29903;BME280;30288;50.514;9.678;2023-02-14T03:16:34;100651.34;;;-3.37;100.00
29903;BME280;30288;50.514;9.678;2023-02-14T03:18:58;100646.63;;;-3.34;100.00
29903;BME280;30288;50.514;9.678;2023-02-14T03:21:27;100647.38;;;-3.35;100.00
29903;BME280;30288;50.514;9.678;2023-02-14T03:23:38;100639.78;;;-3.53;100.00
29903;BME280;30288;50.514;9.678;2023-02-14T03:26:01;100647.28;;;-3.65;100.00
29903;BME280;30288;50.514;9.678;2023-02-14T03:28:19;100648.41;;;-3.60;100.00
29903;BME280;30288;50.514;9.678;2023-02-14T03:30:35;100641.97;;;-3.58;100.00
29903;BME280;30288;50.514;9.678;2023-02-14T03:32:50;100641.88;;;-3.59;100.00
29903;BME280;30288;50.514;9.678;2023-02-14T03:35:05;100645.06;;;-3.47;100.00
29903;BME280;30288;50.514;9.678;2023-02-14T03:37:19;100647.00;;;-3.41;100.00
29903;BME280;30288;50.514;9.678;2023-02-14T03:39:33;100642.88;;;-3.42;100.00
29903;BME280;30288;50.514;9.678;2023-02-14T03:41:51;100646.78;;;-3.59;100.00
29903;BME280;30288;50.514;9.678;2023-02-14T03:44:01;100646.53;;;-3.64;100.00
29903;BME280;30288;50.514;9.678;2023-02-14T03:46:14;100647.28;;;-3.65;100.00
29903;BME280;30288;50.514;9.678;2023-02-14T03:48:22;100637.22;;;-3.55;100.00
29903;BME280;30288;50.514;9.678;2023-02-14T03:50:30;100644.16;;;-3.34;100.00
29903;BME280;30288;50.514;9.678;2023-02-14T03:52:37;100638.81;;;-3.27;100.00
29903;BME280;30288;50.514;9.678;2023-02-14T03:54:45;100640.16;;;-3.32;100.00
29903;BME280;30288;50.514;9.678;2023-02-14T03:57:01;100641.19;;;-3.29;100.00
29903;BME280;30288;50.514;9.678;2023-02-14T03:59:16;100631.84;;;-3.34;100.00
29903;BME280;30288;50.514;9.678;2023-02-14T04:01:27;100639.97;;;-3.35;100.00
29903;BME280;30288;50.514;9.678;2023-02-14T04:03:34;100635.78;;;-3.23;100.00
29903;BME280;30288;50.514;9.678;2023-02-14T04:05:44;100644.44;;;-3.15;100.00
29903;BME280;30288;50.514;9.678;2023-02-14T04:07:56;100635.09;;;-3.06;100.00
29903;BME280;30288;50.514;9.678;2023-02-14T04:10:01;100639.03;;;-2.95;100.00
29903;BME280;30288;50.514;9.678;2023-02-14T04:12:10;100637.00;;;-2.73;100.00
29903;BME280;30288;50.514;9.678;2023-02-14T04:14:15;100643.09;;;-2.51;100.00
29903;BME280;30288;50.514;9.678;2023-02-14T04:16:20;100649.38;;;-2.42;100.00
29903;BME280;30288;50.514;9.678;2023-02-14T04:18:25;100652.03;;;-2.39;100.00
29903;BME280;30288;50.514;9.678;2023-02-14T04:20:43;100653.63;;;-2.39;100.00
29903;BME280;30288;50.514;9.678;2023-02-14T04:22:48;100651.94;;;-2.40;100.00
29903;BME280;30288;50.514;9.678;2023-02-14T04:24:53;100655.84;;;-2.29;100.00
29903;BME280;30288;50.514;9.678;2023-02-14T04:26:58;100651.53;;;-2.17;100.00
29903;BME280;30288;50.514;9.678;2023-02-14T04:29:16;100651.63;;;-2.15;100.00
29903;BME280;30288;50.514;9.678;2023-02-14T04:31:22;100654.34;;;-2.11;100.00
29903;BME280;30288;50.514;9.678;2023-02-14T04:33:27;100649.50;;;-2.09;100.00
29903;BME280;30288;50.514;9.678;2023-02-14T04:35:32;100653.88;;;-2.04;100.00
29903;BME280;30288;50.514;9.678;2023-02-14T04:37:37;100650.66;;;-2.03;100.00
29903;BME280;30288;50.514;9.678;2023-02-14T04:39:42;100644.50;;;-1.95;100.00
29903;BME280;30288;50.514;9.678;2023-02-14T04:41:47;100656.53;;;-1.85;100.00
29903;BME280;30288;50.514;9.678;2023-02-14T04:43:51;100656.72;;;-1.82;100.00
29903;BME280;30288;50.514;9.678;2023-02-14T04:45:59;100647.84;;;-1.78;100.00
29903;BME280;30288;50.514;9.678;2023-02-14T04:48:04;100642.38;;;-1.72;100.00
29903;BME280;30288;50.514;9.678;2023-02-14T04:50:09;100641.53;;;-1.73;100.00
29903;BME280;30288;50.514;9.678;2023-02-14T04:52:15;100643.25;;;-1.72;100.00
29903;BME280;30288;50.514;9.678;2023-02-14T04:54:20;100645.94;;;-1.67;100.00
29903;BME280;30288;50.514;9.678;2023-02-14T04:56:25;100642.72;;;-1.66;100.00
29903;BME280;30288;50.514;9.678;2023-02-14T04:58:31;100647.94;;;-1.60;100.00
29903;BME280;30288;50.514;9.678;2023-02-14T05:00:36;100643.31;;;-1.54;100.00
29903;BME280;30288;50.514;9.678;2023-02-14T05:02:44;100638.69;;;-1.48;100.00
29903;BME280;30288;50.514;9.678;2023-02-14T05:04:49;100635.59;;;-1.44;100.00
29903;BME280;30288;50.514;9.678;2023-02-14T05:06:54;100639.16;;;-1.39;100.00
29903;BME280;30288;50.514;9.678;2023-02-14T05:09:00;100634.34;;;-1.36;100.00
29903;BME280;30288;50.514;9.678;2023-02-14T05:11:05;100635.81;;;-1.23;100.00
29903;BME280;30288;50.514;9.678;2023-02-14T05:13:10;100635.56;;;-1.28;100.00
29903;BME280;30288;50.514;9.678;2023-02-14T05:15:15;100634.97;;;-1.24;100.00
29903;BME280;30288;50.514;9.678;2023-02-14T05:17:21;100633.41;;;-1.22;100.00
29903;BME280;30288;50.514;9.678;2023-02-14T05:19:29;100623.53;;;-1.22;100.00
29903;BME280;30288;50.514;9.678;2023-02-14T05:21:34;100622.00;;;-1.20;100.00
29903;BME280;30288;50.514;9.678;2023-02-14T05:23:40;100622.28;;;-1.14;100.00
29903;BME280;30288;50.514;9.678;2023-02-14T05:25:47;100615.16;;;-1.08;100.00
29903;BME280;30288;50.514;9.678;2023-02-14T05:27:53;100608.81;;;-1.03;100.00
29903;BME280;30288;50.514;9.678;2023-02-14T05:29:58;100613.13;;;-0.99;100.00
29903;BME280;30288;50.514;9.678;2023-02-14T05:32:04;100613.31;;;-0.96;100.00
29903;BME280;30288;50.514;9.678;2023-02-14T05:34:09;100618.38;;;-0.93;100.00
29903;BME280;30288;50.514;9.678;2023-02-14T05:36:17;100616.69;;;-0.94;100.00
29903;BME280;30288;50.514;9.678;2023-02-14T05:38:22;100610.19;;;-0.92;100.00
29903;BME280;30288;50.514;9.678;2023-02-14T05:40:28;100614.63;;;-0.84;100.00
29903;BME280;30288;50.514;9.678;2023-02-14T05:42:34;100612.94;;;-0.85;100.00
29903;BME280;30288;50.514;9.678;2023-02-14T05:44:39;100613.88;;;-0.83;100.00
29903;BME280;30288;50.514;9.678;2023-02-14T05:46:45;100613.88;;;-0.83;100.00
29903;BME280;30288;50.514;9.678;2023-02-14T05:48:50;100618.69;;;-0.86;100.00
29903;BME280;30288;50.514;9.678;2023-02-14T05:50:55;100617.13;;;-0.84;100.00
29903;BME280;30288;50.514;9.678;2023-02-14T05:53:04;100620.53;;;-0.82;100.00
29903;BME280;30288;50.514;9.678;2023-02-14T05:55:10;100621.59;;;-0.77;100.00
29903;BME280;30288;50.514;9.678;2023-02-14T05:57:16;100613.03;;;-0.66;100.00
29903;BME280;30288;50.514;9.678;2023-02-14T05:59:21;100621.53;;;-0.61;100.00
29903;BME280;30288;50.514;9.678;2023-02-14T06:01:26;100623.66;;;-0.69;100.00
29903;BME280;30288;50.514;9.678;2023-02-14T06:03:31;100623.84;;;-0.64;100.00
29903;BME280;30288;50.514;9.678;2023-02-14T06:05:36;100620.53;;;-0.65;100.00
29903;BME280;30288;50.514;9.678;2023-02-14T06:07:42;100622.31;;;-0.62;100.00
29903;BME280;30288;50.514;9.678;2023-02-14T06:09:54;100624.50;;;-0.68;100.00
29903;BME280;30288;50.514;9.678;2023-02-14T06:11:59;100627.19;;;-0.64;100.00
29903;BME280;30288;50.514;9.678;2023-02-14T06:14:04;100628.16;;;-0.60;100.00
29903;BME280;30288;50.514;9.678;2023-02-14T06:16:09;100632.34;;;-0.59;100.00
29903;BME280;30288;50.514;9.678;2023-02-14T06:18:14;100625.22;;;-0.53;100.00
29903;BME280;30288;50.514;9.678;2023-02-14T06:20:20;100629.38;;;-0.52;100.00
29903;BME280;30288;50.514;9.678;2023-02-14T06:22:25;100633.72;;;-0.48;100.00
29903;BME280;30288;50.514;9.678;2023-02-14T06:24:32;100631.56;;;-0.40;100.00
29903;BME280;30288;50.514;9.678;2023-02-14T06:26:40;100632.56;;;-0.37;100.00
29903;BME280;30288;50.514;9.678;2023-02-14T06:28:45;100629.03;;;-0.42;100.00
29903;BME280;30288;50.514;9.678;2023-02-14T06:30:50;100629.19;;;-0.39;100.00
29903;BME280;30288;50.514;9.678;2023-02-14T06:32:56;100631.88;;;-0.34;100.00
29903;BME280;30288;50.514;9.678;2023-02-14T06:35:01;100627.97;;;-0.29;100.00
29903;BME280;30288;50.514;9.678;2023-02-14T06:37:07;100630.00;;;-0.21;100.00
29903;BME280;30288;50.514;9.678;2023-02-14T06:39:12;100637.38;;;-0.22;100.00
29903;BME280;30288;50.514;9.678;2023-02-14T06:41:17;100633.25;;;-0.22;100.00
29903;BME280;30288;50.514;9.678;2023-02-14T06:43:25;100636.66;;;-0.20;100.00
29903;BME280;30288;50.514;9.678;2023-02-14T06:45:30;100640.00;;;-0.19;100.00
29903;BME280;30288;50.514;9.678;2023-02-14T06:47:35;100633.69;;;-0.13;100.00
29903;BME280;30288;50.514;9.678;2023-02-14T06:49:40;100637.78;;;-0.13;100.00
29903;BME280;30288;50.514;9.678;2023-02-14T06:51:45;100638.50;;;-0.16;100.00
29903;BME280;30288;50.514;9.678;2023-02-14T06:53:50;100641.31;;;-0.08;100.00
29903;BME280;30288;50.514;9.678;2023-02-14T06:55:56;100629.53;;;0.06;100.00
29903;BME280;30288;50.514;9.678;2023-02-14T06:58:01;100633.72;;;0.07;100.00
29903;BME280;30288;50.514;9.678;2023-02-14T07:00:10;100628.72;;;-0.13;100.00
29903;BME280;30288;50.514;9.678;2023-02-14T07:02:15;100625.19;;;0.00;100.00
29903;BME280;30288;50.514;9.678;2023-02-14T07:04:20;100630.72;;;-0.06;100.00
29903;BME280;30288;50.514;9.678;2023-02-14T07:06:25;100630.31;;;-0.15;100.00
29903;BME280;30288;50.514;9.678;2023-02-14T07:08:30;100633.22;;;-0.04;100.00
29903;BME280;30288;50.514;9.678;2023-02-14T07:10:35;100625.75;;;-0.06;100.00
29903;BME280;30288;50.514;9.678;2023-02-14T07:12:40;100630.56;;;-0.09;100.00
29903;BME280;30288;50.514;9.678;2023-02-14T07:14:46;100629.53;;;0.06;100.00
29903;BME280;30288;50.514;9.678;2023-02-14T07:16:53;100629.41;;;0.03;100.00
29903;BME280;30288;50.514;9.678;2023-02-14T07:18:58;100635.22;;;0.03;100.00
29903;BME280;30288;50.514;9.678;2023-02-14T07:21:04;100628.00;;;0.08;100.00
29903;BME280;30288;50.514;9.678;2023-02-14T07:23:10;100628.38;;;0.17;100.00
29903;BME280;30288;50.514;9.678;2023-02-14T07:25:16;100624.09;;;0.13;100.00
29903;BME280;30288;50.514;9.678;2023-02-14T07:27:21;100625.16;;;0.18;100.00
29903;BME280;30288;50.514;9.678;2023-02-14T07:29:26;100618.50;;;0.36;100.00
29903;BME280;30288;50.514;9.678;2023-02-14T07:31:31;100622.13;;;0.25;100.00
29903;BME280;30288;50.514;9.678;2023-02-14T07:33:40;100621.88;;;0.19;100.00
29903;BME280;30288;50.514;9.678;2023-02-14T07:35:45;100621.34;;;0.26;100.00
29903;BME280;30288;50.514;9.678;2023-02-14T07:37:51;100616.78;;;0.54;100.00
29903;BME280;30288;50.514;9.678;2023-02-14T07:39:56;100614.31;;;0.54;100.00
29903;BME280;30288;50.514;9.678;2023-02-14T07:42:02;100616.28;;;0.42;100.00
29903;BME280;30288;50.514;9.678;2023-02-14T07:44:07;100616.13;;;0.39;100.00
29903;BME280;30288;50.514;9.678;2023-02-14T07:46:14;100620.59;;;0.46;100.00
29903;BME280;30288;50.514;9.678;2023-02-14T07:48:19;100624.63;;;0.44;100.00
29903;BME280;30288;50.514;9.678;2023-02-14T07:50:28;100617.34;;;0.66;100.00
29903;BME280;30288;50.514;9.678;2023-02-14T07:52:33;100615.09;;;0.72;100.00
29903;BME280;30288;50.514;9.678;2023-02-14T07:54:38;100618.69;;;0.60;100.00
29903;BME280;30288;50.514;9.678;2023-02-14T07:56:43;100616.91;;;0.57;100.00
29903;BME280;30288;50.514;9.678;2023-02-14T07:58:48;100612.22;;;0.63;100.00
29903;BME280;30288;50.514;9.678;2023-02-14T08:00:54;100617.34;;;0.66;100.00
29903;BME280;30288;50.514;9.678;2023-02-14T08:02:59;100611.75;;;0.72;100.00
29903;BME280;30288;50.514;9.678;2023-02-14T08:05:05;100613.34;;;0.70;100.00
29903;BME280;30288;50.514;9.678;2023-02-14T08:07:14;100618.56;;;0.76;100.00
29903;BME280;30288;50.514;9.678;2023-02-14T08:09:19;100608.16;;;0.84;100.00
29903;BME280;30288;50.514;9.678;2023-02-14T08:11:28;100617.53;;;0.92;100.00
29903;BME280;30288;50.514;9.678;2023-02-14T08:13:45;100618.31;;;0.91;100.00
29903;BME280;30288;50.514;9.678;2023-02-14T08:15:51;100618.81;;;1.03;100.00
29903;BME280;30288;50.514;9.678;2023-02-14T08:18:09;100618.94;;;1.06;100.00
29903;BME280;30288;50.514;9.678;2023-02-14T08:20:14;100609.38;;;1.15;100.00
29903;BME280;30288;50.514;9.678;2023-02-14T08:22:22;100618.53;;;1.16;100.00
29903;BME280;30288;50.514;9.678;2023-02-14T08:24:28;100614.34;;;1.15;100.00
29903;BME280;30288;50.514;9.678;2023-02-14T08:26:33;100616.16;;;1.19;100.00
29903;BME280;30288;50.514;9.678;2023-02-14T08:28:38;100617.44;;;1.30;100.00
29903;BME280;30288;50.514;9.678;2023-02-14T08:30:44;100615.31;;;1.39;100.00
29903;BME280;30288;50.514;9.678;2023-02-14T08:32:49;100611.25;;;1.41;100.00
29903;BME280;30288;50.514;9.678;2023-02-14T08:34:54;100605.53;;;1.42;100.00
29903;BME280;30288;50.514;9.678;2023-02-14T08:36:59;100610.69;;;1.48;100.00
29903;BME280;30288;50.514;9.678;2023-02-14T08:39:07;100615.06;;;1.54;100.00
29903;BME280;30288;50.514;9.678;2023-02-14T08:41:12;100603.38;;;1.51;100.00
29903;BME280;30288;50.514;9.678;2023-02-14T08:43:17;100611.19;;;1.60;100.00
29903;BME280;30288;50.514;9.678;2023-02-14T08:45:22;100609.47;;;1.59;100.00
29903;BME280;30288;50.514;9.678;2023-02-14T08:47:27;100615.41;;;1.63;100.00
29903;BME280;30288;50.514;9.678;2023-02-14T08:49:36;100613.06;;;1.66;100.00
29903;BME280;30288;50.514;9.678;2023-02-14T08:51:41;100608.91;;;1.66;100.00
29903;BME280;30288;50.514;9.678;2023-02-14T08:53:49;100611.28;;;1.63;100.00
29903;BME280;30288;50.514;9.678;2023-02-14T08:56:02;100607.78;;;1.58;100.00
29903;BME280;30288;50.514;9.678;2023-02-14T08:58:07;100612.50;;;1.52;100.00
29903;BME280;30288;50.514;9.678;2023-02-14T09:00:14;100610.56;;;1.66;100.00
29903;BME280;30288;50.514;9.678;2023-02-14T09:02:19;100616.50;;;1.69;100.00
29903;BME280;30288;50.514;9.678;2023-02-14T09:04:24;100612.53;;;1.74;100.00
29903;BME280;30288;50.514;9.678;2023-02-14T09:06:29;100610.06;;;1.74;100.00
29903;BME280;30288;50.514;9.678;2023-02-14T09:08:36;100603.97;;;1.89;100.00
29903;BME280;30288;50.514;9.678;2023-02-14T09:10:41;100602.28;;;1.88;100.00
29903;BME280;30288;50.514;9.678;2023-02-14T09:12:49;100606.81;;;1.75;100.00
29903;BME280;30288;50.514;9.678;2023-02-14T09:14:54;100594.25;;;1.95;100.00
29903;BME280;30288;50.514;9.678;2023-02-14T09:16:59;100598.72;;;2.03;100.00
29903;BME280;30288;50.514;9.678;2023-02-14T09:19:06;100591.78;;;1.95;100.00
29903;BME280;30288;50.514;9.678;2023-02-14T09:21:14;100596.06;;;1.99;100.00
29903;BME280;30288;50.514;9.678;2023-02-14T09:23:19;100595.53;;;2.07;100.00
29903;BME280;30288;50.514;9.678;2023-02-14T09:25:24;100587.06;;;2.02;100.00
29903;BME280;30288;50.514;9.678;2023-02-14T09:27:29;100592.91;;;2.03;100.00
29903;BME280;30288;50.514;9.678;2023-02-14T09:29:38;100590.25;;;1.98;100.00
29903;BME280;30288;50.514;9.678;2023-02-14T09:31:43;100586.84;;;1.96;100.00
29903;BME280;30288;50.514;9.678;2023-02-14T09:33:49;100598.31;;;1.93;100.00
29903;BME280;30288;50.514;9.678;2023-02-14T09:36:08;100598.66;;;2.02;100.00
29903;BME280;30288;50.514;9.678;2023-02-14T09:38:25;100594.38;;;1.98;100.00
29903;BME280;30288;50.514;9.678;2023-02-14T09:40:27;100597.53;;;1.94;100.00
29903;BME280;30288;50.514;9.678;2023-02-14T09:42:58;100597.72;;;2.00;100.00
29903;BME280;30288;50.514;9.678;2023-02-14T09:45:11;100591.59;;;2.12;100.00
29903;BME280;30288;50.514;9.678;2023-02-14T09:47:24;100589.09;;;2.12;100.00
29903;BME280;30288;50.514;9.678;2023-02-14T09:49:37;100598.44;;;2.19;100.00
29903;BME280;30288;50.514;9.678;2023-02-14T09:51:47;100594.13;;;2.38;100.00
29903;BME280;30288;50.514;9.678;2023-02-14T09:54:00;100592.78;;;2.47;100.00
29903;BME280;30288;50.514;9.678;2023-02-14T09:56:13;100595.13;;;2.67;100.00
29903;BME280;30288;50.514;9.678;2023-02-14T09:58:27;100594.59;;;2.75;100.00
29903;BME280;30288;50.514;9.678;2023-02-14T10:00:41;100597.41;;;2.86;100.00
29903;BME280;30288;50.514;9.678;2023-02-14T10:02:58;100599.03;;;2.84;100.00
29903;BME280;30288;50.514;9.678;2023-02-14T10:05:12;100594.94;;;2.86;100.00
29903;BME280;30288;50.514;9.678;2023-02-14T10:07:26;100601.50;;;3.09;100.00
29903;BME280;30288;50.514;9.678;2023-02-14T10:09:52;100605.03;;;2.90;100.00
29903;BME280;30288;50.514;9.678;2023-02-14T10:12:01;100606.00;;;2.94;100.00
29903;BME280;30288;50.514;9.678;2023-02-14T10:14:12;100600.50;;;2.79;100.00
29903;BME280;30288;50.514;9.678;2023-02-14T10:16:23;100598.47;;;2.92;100.00
29903;BME280;30288;50.514;9.678;2023-02-14T10:18:38;100603.84;;;3.04;100.00
29903;BME280;30288;50.514;9.678;2023-02-14T10:20:46;100608.94;;;3.07;100.00
29903;BME280;30288;50.514;9.678;2023-02-14T10:23:02;100601.59;;;3.12;100.00
29903;BME280;30288;50.514;9.678;2023-02-14T10:25:15;100597.25;;;3.32;100.00
29903;BME280;30288;50.514;9.678;2023-02-14T10:27:30;100591.63;;;3.37;100.00
29903;BME280;30288;50.514;9.678;2023-02-14T10:29:37;100592.50;;;3.39;100.00
29903;BME280;30288;50.514;9.678;2023-02-14T10:31:51;100592.88;;;3.51;100.00
29903;BME280;30288;50.514;9.678;2023-02-14T10:34:04;100589.94;;;3.38;100.00
29903;BME280;30288;50.514;9.678;2023-02-14T10:36:20;100583.44;;;3.41;100.00
29903;BME280;30288;50.514;9.678;2023-02-14T10:38:38;100580.00;;;3.65;100.00
29903;BME280;30288;50.514;9.678;2023-02-14T10:41:05;100581.38;;;3.57;100.00
29903;BME280;30288;50.514;9.678;2023-02-14T10:43:22;100577.50;;;3.93;100.00
29903;BME280;30288;50.514;9.678;2023-02-14T10:45:37;100576.81;;;3.99;100.00
29903;BME280;30288;50.514;9.678;2023-02-14T10:47:53;100585.69;;;3.89;100.00
29903;BME280;30288;50.514;9.678;2023-02-14T10:50:12;100586.44;;;3.86;100.00
29903;BME280;30288;50.514;9.678;2023-02-14T10:52:26;100588.78;;;3.82;100.00
29903;BME280;30288;50.514;9.678;2023-02-14T10:54:37;100577.81;;;4.05;100.00
29903;BME280;30288;50.514;9.678;2023-02-14T10:56:45;100582.56;;;3.96;100.00
29903;BME280;30288;50.514;9.678;2023-02-14T10:58:55;100582.66;;;3.99;100.00
29903;BME280;30288;50.514;9.678;2023-02-14T11:01:04;100580.38;;;4.07;100.00
29903;BME280;30288;50.514;9.678;2023-02-14T11:03:13;100574.72;;;4.12;100.00
29903;BME280;30288;50.514;9.678;2023-02-14T11:05:26;100574.97;;;4.21;100.00
29903;BME280;30288;50.514;9.678;2023-02-14T11:07:32;100573.88;;;4.12;100.00
29903;BME280;30288;50.514;9.678;2023-02-14T11:09:37;100572.75;;;4.02;100.00
29903;BME280;30288;50.514;9.678;2023-02-14T11:11:47;100576.94;;;4.03;100.00
29903;BME280;30288;50.514;9.678;2023-02-14T11:13:54;100561.84;;;4.28;100.00